createdAt,value
2022-08-10T00:00:21.937Z,1.77
2022-08-10T00:01:45.703Z,2.13
2022-08-10T00:03:15.193Z,1.60
2022-08-10T00:04:37.764Z,2.05
2022-08-10T00:06:01.424Z,1.75
2022-08-10T00:07:25.084Z,1.95
2022-08-10T00:08:47.697Z,1.88
2022-08-10T00:10:12.486Z,1.90
2022-08-10T00:11:36.104Z,2.00
2022-08-10T00:12:59.717Z,1.95
2022-08-10T00:14:22.400Z,1.90
2022-08-10T00:15:53.495Z,1.80
2022-08-10T00:17:18.168Z,1.90
2022-08-10T00:18:41.865Z,1.70
2022-08-10T00:20:08.328Z,1.70
2022-08-10T00:21:32.218Z,2.08
2022-08-10T00:22:57.432Z,2.20
2022-08-10T00:24:21.654Z,1.88
2022-08-10T00:25:44.449Z,1.77
2022-08-10T00:27:52.935Z,1.92
2022-08-10T00:28:51.643Z,1.80
2022-08-10T00:30:14.575Z,1.85
2022-08-10T00:31:58.077Z,1.85
2022-08-10T00:33:23.051Z,2.00
2022-08-10T00:34:45.965Z,2.08
2022-08-10T00:36:10.021Z,1.70
2022-08-10T00:37:32.648Z,1.80
2022-08-10T00:38:56.270Z,2.58
2022-08-10T00:40:19.898Z,1.85
2022-08-10T00:42:06.912Z,1.73
2022-08-10T00:43:31.649Z,1.73
2022-08-10T00:44:54.363Z,2.03
2022-08-10T00:46:18.108Z,2.10
2022-08-10T00:47:43.160Z,1.80
2022-08-10T00:49:05.843Z,1.70
2022-08-10T00:50:29.530Z,1.80
2022-08-10T00:51:52.144Z,2.03
2022-08-10T00:53:16.294Z,2.10
2022-08-10T00:54:39.204Z,1.90
2022-08-10T00:57:12.725Z,2.00
2022-08-10T00:57:54.732Z,1.90
2022-08-10T00:59:19.450Z,1.70
2022-08-10T01:00:43.862Z,2.08
2022-08-10T01:02:09.592Z,2.38
2022-08-10T01:04:58.429Z,2.10
2022-08-10T01:05:20.443Z,1.70
2022-08-10T01:06:59.660Z,1.92
2022-08-10T01:08:30.284Z,2.15
2022-08-10T01:10:04.881Z,2.00
2022-08-10T01:12:38.418Z,2.25
2022-08-10T01:13:26.477Z,2.15
2022-08-10T01:14:53.270Z,1.77
2022-08-10T01:16:28.886Z,1.88
2022-08-10T01:17:56.672Z,1.98
2022-08-10T01:19:30.612Z,2.22
2022-08-10T01:21:14.276Z,2.28
2022-08-10T01:22:55.249Z,2.33
2022-08-10T01:24:45.281Z,2.13
2022-08-10T01:26:32.150Z,1.92
2022-08-10T01:28:00.682Z,1.95
2022-08-10T01:29:51.343Z,2.17
2022-08-10T01:31:17.653Z,2.28
2022-08-10T01:32:50.491Z,2.03
2022-08-10T01:34:18.300Z,2.33
2022-08-10T01:35:46.278Z,1.95
2022-08-10T01:37:13.864Z,2.25
2022-08-10T01:38:40.398Z,2.40
2022-08-10T01:40:06.833Z,2.55
2022-08-10T01:41:45.869Z,2.55
2022-08-10T01:43:12.217Z,2.55
2022-08-10T01:44:36.961Z,2.00
2022-08-10T01:46:02.859Z,1.77
2022-08-10T01:47:46.592Z,2.80
2022-08-10T01:49:10.419Z,2.17
2022-08-10T01:50:59.516Z,2.40
2022-08-10T01:52:24.369Z,2.35
2022-08-10T01:53:54.263Z,2.35
2022-08-10T01:55:17.968Z,1.90
2022-08-10T01:56:51.215Z,2.53
2022-08-10T01:58:15.497Z,2.00
2022-08-10T01:59:41.420Z,2.00
2022-08-10T02:01:23.417Z,2.28
2022-08-10T02:02:46.397Z,2.50
2022-08-10T02:04:13.453Z,2.33
2022-08-10T02:05:36.671Z,2.05
2022-08-10T02:07:01.762Z,2.40
2022-08-10T02:08:25.021Z,2.25
2022-08-10T02:09:51.020Z,2.63
2022-08-10T02:11:15.066Z,2.50
2022-08-10T02:12:37.929Z,2.70
2022-08-10T02:14:02.327Z,2.53
2022-08-10T02:15:28.390Z,2.35
2022-08-10T02:16:54.182Z,2.42
2022-08-10T02:18:17.836Z,2.22
2022-08-10T02:19:42.226Z,2.25
2022-08-10T02:21:07.454Z,2.20
2022-08-10T02:22:36.413Z,2.65
2022-08-10T02:24:03.022Z,2.40
2022-08-10T02:25:41.098Z,2.25
2022-08-10T02:27:06.968Z,2.45
2022-08-10T02:28:33.265Z,2.53
2022-08-10T02:29:57.141Z,2.78
2022-08-10T02:31:25.239Z,2.33
2022-08-10T02:32:52.863Z,2.60
2022-08-10T02:34:17.681Z,2.00
2022-08-10T02:35:54.353Z,2.72
2022-08-10T02:37:20.161Z,2.40
2022-08-10T02:38:57.623Z,2.65
2022-08-10T02:45:01.158Z,2.60
2022-08-10T02:45:14.108Z,2.38
2022-08-10T02:45:23.753Z,2.30
2022-08-10T02:45:50.606Z,2.65
2022-08-10T02:47:18.602Z,2.72
2022-08-10T02:48:45.882Z,2.75
2022-08-10T02:50:13.334Z,2.95
2022-08-10T02:52:08.112Z,2.78
2022-08-10T02:53:51.497Z,2.53
2022-08-10T02:55:27.252Z,2.55
2022-08-10T02:56:58.325Z,2.38
2022-08-10T02:58:24.927Z,2.92
2022-08-10T02:59:51.013Z,2.80
2022-08-10T03:01:17.842Z,2.55
2022-08-10T03:02:46.079Z,2.80
2022-08-10T03:04:16.296Z,2.80
2022-08-10T03:05:39.001Z,2.63
2022-08-10T03:07:05.448Z,2.70
2022-08-10T03:08:35.543Z,2.60
2022-08-10T03:09:59.578Z,2.80
2022-08-10T03:12:36.177Z,2.85
2022-08-10T03:13:10.987Z,2.92
2022-08-10T03:14:38.603Z,2.80
2022-08-10T03:16:03.216Z,2.88
2022-08-10T03:17:26.451Z,3.15
2022-08-10T03:18:50.455Z,3.00
2022-08-10T03:20:38.118Z,3.28
2022-08-10T03:22:00.944Z,2.60
2022-08-10T03:23:25.887Z,2.78
2022-08-10T03:24:50.080Z,3.22
2022-08-10T03:26:16.541Z,3.80
2022-08-10T03:27:45.010Z,3.28
2022-08-10T03:29:11.489Z,3.35
2022-08-10T03:30:35.071Z,3.28
2022-08-10T03:31:59.110Z,3.33
2022-08-10T03:33:23.542Z,3.35
2022-08-10T03:34:47.251Z,3.20
2022-08-10T03:36:40.728Z,3.17
2022-08-10T03:37:59.676Z,3.38
2022-08-10T03:39:23.886Z,2.97
2022-08-10T03:40:47.673Z,3.10
2022-08-10T03:42:13.723Z,3.05
2022-08-10T03:43:37.515Z,2.90
2022-08-10T03:45:01.681Z,3.10
2022-08-10T03:46:25.692Z,3.55
2022-08-10T03:47:49.776Z,2.72
2022-08-10T03:49:13.850Z,2.75
2022-08-10T03:50:51.359Z,2.78
2022-08-10T03:52:18.427Z,2.97
2022-08-10T03:54:02.834Z,3.20
2022-08-10T03:56:26.572Z,3.10
2022-08-10T03:57:09.988Z,3.65
2022-08-10T03:58:33.918Z,3.20
2022-08-10T03:59:57.804Z,2.90
2022-08-10T04:01:20.794Z,2.67
2022-08-10T04:03:05.525Z,3.53
2022-08-10T04:04:29.371Z,3.28
2022-08-10T04:05:52.017Z,2.92
2022-08-10T04:07:17.041Z,2.90
2022-08-10T04:08:42.122Z,2.60
2022-08-10T04:10:06.272Z,2.97
2022-08-10T04:11:37.319Z,2.70
2022-08-10T04:13:04.345Z,2.80
2022-08-10T04:14:49.901Z,2.47
2022-08-10T04:16:10.696Z,2.85
2022-08-10T04:18:02.831Z,2.83
2022-08-10T04:19:19.877Z,2.47
2022-08-10T04:20:46.183Z,2.67
2022-08-10T04:22:14.027Z,2.72
2022-08-10T04:23:46.960Z,2.88
2022-08-10T04:25:13.853Z,2.60
2022-08-10T04:26:37.488Z,2.58
2022-08-10T04:28:00.189Z,2.28
2022-08-10T04:29:23.865Z,2.63
2022-08-10T04:30:47.635Z,2.47
2022-08-10T04:32:11.579Z,2.15
2022-08-10T04:33:35.696Z,2.50
2022-08-10T04:34:58.701Z,2.97
2022-08-10T04:36:23.468Z,2.67
2022-08-10T04:37:47.830Z,2.45
2022-08-10T04:39:13.822Z,2.50
2022-08-10T04:40:37.574Z,2.25
2022-08-10T04:42:02.060Z,2.80
2022-08-10T04:43:25.676Z,2.30
2022-08-10T04:44:49.334Z,2.58
2022-08-10T04:46:42.531Z,2.33
2022-08-10T04:48:00.636Z,2.50
2022-08-10T04:49:55.301Z,2.30
2022-08-10T04:51:16.870Z,2.20
2022-08-10T04:52:41.058Z,2.50
2022-08-10T04:54:07.209Z,2.72
2022-08-10T04:55:33.422Z,2.65
2022-08-10T04:56:57.033Z,2.53
2022-08-10T04:58:20.640Z,2.67
2022-08-10T04:59:43.263Z,2.30
2022-08-10T05:01:07.466Z,2.38
2022-08-10T05:02:32.295Z,2.47
2022-08-10T05:04:34.746Z,2.42
2022-08-10T05:05:39.089Z,2.60
2022-08-10T05:07:01.752Z,2.25
2022-08-10T05:08:26.140Z,2.40
2022-08-10T05:10:01.597Z,2.90
2022-08-10T05:11:28.429Z,2.55
2022-08-10T05:12:52.111Z,2.53
2022-08-10T05:14:14.703Z,2.58
2022-08-10T05:15:38.307Z,2.60
2022-08-10T05:17:01.018Z,2.55
2022-08-10T05:18:24.591Z,2.70
2022-08-10T05:20:03.521Z,2.50
2022-08-10T05:22:03.059Z,2.38
2022-08-10T05:23:12.458Z,2.70
2022-08-10T05:24:35.077Z,2.30
2022-08-10T05:25:58.701Z,2.70
2022-08-10T05:27:23.647Z,2.35
2022-08-10T05:28:47.226Z,2.70
2022-08-10T05:30:11.344Z,2.83
2022-08-10T05:31:35.312Z,2.15
2022-08-10T05:33:01.624Z,2.60
2022-08-10T05:34:28.739Z,2.80
2022-08-10T05:35:57.698Z,3.10
2022-08-10T05:38:12.734Z,2.45
2022-08-10T05:39:06.433Z,2.53
2022-08-10T05:40:30.311Z,2.60
2022-08-10T05:41:54.934Z,2.40
2022-08-10T05:43:26.043Z,2.75
2022-08-10T05:44:49.734Z,2.47
2022-08-10T05:46:17.245Z,2.53
2022-08-10T05:48:41.734Z,2.30
2022-08-10T05:49:30.087Z,2.60
2022-08-10T05:50:52.849Z,2.20
2022-08-10T05:52:17.119Z,2.55
2022-08-10T05:54:02.377Z,2.67
2022-08-10T05:55:24.548Z,2.70
2022-08-10T05:56:56.182Z,2.20
2022-08-10T05:58:21.698Z,2.45
2022-08-10T06:00:33.323Z,3.00
2022-08-10T06:01:36.489Z,2.45
2022-08-10T06:03:02.023Z,2.70
2022-08-10T06:04:29.571Z,2.60
2022-08-10T06:05:56.330Z,2.70
2022-08-10T06:07:21.918Z,2.28
2022-08-10T06:08:47.423Z,2.28
2022-08-10T06:10:14.193Z,2.53
2022-08-10T06:12:24.659Z,2.30
2022-08-10T06:14:12.551Z,2.03
2022-08-10T06:15:52.121Z,2.53
2022-08-10T06:17:15.551Z,2.40
2022-08-10T06:18:39.453Z,2.70
2022-08-10T06:20:03.186Z,2.55
2022-08-10T06:21:27.628Z,2.30
2022-08-10T06:22:51.267Z,2.53
2022-08-10T06:24:17.289Z,2.88
2022-08-10T06:26:11.842Z,2.65
2022-08-10T06:27:34.315Z,2.72
2022-08-10T06:29:04.225Z,2.10
2022-08-10T06:30:28.892Z,2.83
2022-08-10T06:31:54.889Z,2.92
2022-08-10T06:33:19.433Z,2.50
2022-08-10T06:34:47.629Z,2.30
2022-08-10T06:36:12.289Z,2.28
2022-08-10T06:37:35.944Z,2.10
2022-08-10T06:39:16.679Z,2.78
2022-08-10T06:40:46.712Z,2.47
2022-08-10T06:42:17.918Z,2.55
2022-08-10T06:43:44.977Z,2.70
2022-08-10T06:45:12.187Z,1.98
2022-08-10T06:46:37.333Z,2.53
2022-08-10T06:48:05.545Z,2.40
2022-08-10T06:49:29.063Z,2.75
2022-08-10T06:50:58.648Z,2.60
2022-08-10T06:52:23.684Z,2.42
2022-08-10T06:53:52.878Z,2.50
2022-08-10T06:55:18.873Z,2.70
2022-08-10T06:57:01.695Z,2.30
2022-08-10T06:58:33.967Z,2.25
2022-08-10T06:59:58.732Z,2.22
2022-08-10T07:01:26.571Z,2.47
2022-08-10T07:02:52.994Z,2.30
2022-08-10T07:04:32.223Z,2.20
2022-08-10T07:05:57.420Z,2.22
2022-08-10T07:07:22.785Z,2.40
2022-08-10T07:08:47.129Z,3.00
2022-08-10T07:10:11.518Z,2.63
2022-08-10T07:11:35.512Z,2.63
2022-08-10T07:13:00.424Z,2.53
2022-08-10T07:14:25.897Z,2.20
2022-08-10T07:15:59.642Z,2.50
2022-08-10T07:17:26.933Z,2.50
2022-08-10T07:18:50.025Z,2.60
2022-08-10T07:20:18.708Z,2.30
2022-08-10T07:21:44.984Z,2.30
2022-08-10T07:23:56.789Z,2.70
2022-08-10T07:24:53.343Z,2.50
2022-08-10T07:26:17.366Z,3.15
2022-08-10T07:28:00.215Z,2.85
2022-08-10T07:29:54.368Z,2.67
2022-08-10T07:31:36.081Z,2.80
2022-08-10T07:33:01.796Z,2.22
2022-08-10T07:34:29.681Z,2.55
2022-08-10T07:35:58.156Z,2.25
2022-08-10T07:37:22.448Z,2.40
2022-08-10T07:38:46.452Z,2.30
2022-08-10T07:40:10.907Z,2.45
2022-08-10T07:41:35.268Z,2.10
2022-08-10T07:43:01.746Z,1.98
2022-08-10T07:44:29.214Z,2.50
2022-08-10T07:45:53.211Z,2.20
2022-08-10T07:47:46.210Z,1.92
2022-08-10T07:49:19.003Z,2.10
2022-08-10T07:50:43.701Z,1.73
2022-08-10T07:52:11.543Z,2.08
2022-08-10T07:53:39.941Z,2.15
2022-08-10T07:55:05.324Z,2.15
2022-08-10T07:56:48.437Z,2.03
2022-08-10T07:58:13.429Z,2.22
2022-08-10T07:59:40.635Z,2.00
2022-08-10T08:01:04.695Z,2.10
2022-08-10T08:02:35.688Z,1.95
2022-08-10T08:04:10.343Z,2.33
2022-08-10T08:05:58.365Z,2.30
2022-08-10T08:07:22.961Z,2.08
2022-08-10T08:08:47.186Z,2.53
2022-08-10T08:10:12.756Z,1.90
2022-08-10T08:11:37.747Z,1.60
2022-08-10T08:13:01.572Z,1.92
2022-08-10T08:14:24.977Z,2.50
2022-08-10T08:16:18.095Z,2.08
2022-08-10T08:17:35.465Z,1.60
2022-08-10T08:19:26.861Z,1.92
2022-08-10T08:20:43.176Z,1.90
2022-08-10T08:24:07.378Z,1.77
2022-08-10T08:24:09.881Z,1.67
2022-08-10T08:25:40.651Z,2.00
2022-08-10T08:27:05.371Z,1.45
2022-08-10T08:28:28.557Z,1.77
2022-08-10T08:29:54.166Z,1.83
2022-08-10T08:31:18.188Z,1.63
2022-08-10T08:32:44.113Z,1.70
2022-08-10T08:34:08.269Z,1.75
2022-08-10T08:35:32.327Z,2.45
2022-08-10T08:36:59.613Z,1.40
2022-08-10T08:38:33.644Z,1.48
2022-08-10T08:39:59.776Z,1.70
2022-08-10T08:41:47.193Z,1.90
2022-08-10T08:43:48.720Z,1.70
2022-08-10T08:45:22.450Z,1.60
2022-08-10T08:47:04.242Z,1.85
2022-08-10T08:48:58.392Z,1.98
2022-08-10T08:50:33.888Z,1.30
2022-08-10T08:52:07.825Z,1.40
2022-08-10T08:54:02.934Z,1.40
2022-08-10T08:55:52.343Z,1.40
2022-08-10T08:57:50.183Z,1.98
2022-08-10T08:59:25.743Z,1.75
2022-08-10T09:00:53.475Z,2.20
2022-08-10T09:02:43.852Z,1.88
2022-08-10T09:04:57.500Z,1.50
2022-08-10T09:06:34.391Z,1.45
2022-08-10T09:08:24.369Z,1.58
2022-08-10T09:10:01.864Z,1.88
2022-08-10T09:11:50.756Z,1.25
2022-08-10T09:13:26.663Z,1.58
2022-08-10T09:14:54.055Z,1.75
2022-08-10T09:16:24.750Z,1.42
2022-08-10T09:17:56.258Z,1.70
2022-08-10T09:19:36.239Z,1.15
2022-08-10T09:21:05.403Z,1.27
2022-08-10T09:22:32.718Z,1.63
2022-08-10T09:24:05.832Z,1.70
2022-08-10T09:25:38.725Z,1.30
2022-08-10T09:27:09.581Z,1.30
2022-08-10T09:28:37.235Z,1.80
2022-08-10T09:30:05.857Z,1.40
2022-08-10T09:31:32.447Z,1.38
2022-08-10T09:36:21.260Z,1.48
2022-08-10T09:36:23.685Z,1.20
2022-08-10T09:36:45.744Z,1.20
2022-08-10T09:38:18.626Z,1.27
2022-08-10T09:40:56.326Z,1.20
2022-08-10T09:41:37.454Z,1.02
2022-08-10T09:43:25.441Z,1.00
2022-08-10T09:44:57.315Z,1.15
2022-08-10T09:46:37.740Z,2.17
2022-08-10T09:48:08.211Z,1.15
2022-08-10T09:49:54.390Z,1.10
2022-08-10T09:51:47.339Z,1.08
2022-08-10T09:53:21.609Z,1.15
2022-08-10T09:54:55.175Z,1.60
2022-08-10T09:56:28.837Z,1.60
2022-08-10T09:57:59.824Z,1.27
2022-08-10T10:00:00.837Z,1.13
2022-08-10T10:01:22.353Z,1.40
2022-08-10T10:03:17.224Z,1.10
2022-08-10T10:04:47.058Z,1.25
2022-08-10T10:06:17.312Z,1.20
2022-08-10T10:07:45.895Z,1.05
2022-08-10T10:09:15.557Z,1.10
2022-08-10T10:10:47.776Z,1.20
2022-08-10T10:12:17.513Z,1.40
2022-08-10T10:14:04.345Z,1.58
2022-08-10T10:15:35.970Z,1.52
2022-08-10T10:17:04.954Z,1.40
2022-08-10T10:18:39.370Z,1.25
2022-08-10T10:20:10.775Z,1.20
2022-08-10T10:21:54.967Z,2.17
2022-08-10T10:23:28.542Z,0.95
2022-08-10T10:24:57.169Z,1.42
2022-08-10T10:26:25.579Z,1.30
2022-08-10T10:27:54.560Z,1.65
2022-08-10T10:29:58.182Z,1.15
2022-08-10T10:31:20.157Z,1.10
2022-08-10T10:32:50.371Z,1.23
2022-08-10T10:34:22.857Z,0.85
2022-08-10T10:35:49.856Z,1.10
2022-08-10T10:37:14.321Z,1.40
2022-08-10T10:38:39.006Z,1.15
2022-08-10T10:40:04.757Z,1.27
2022-08-10T10:41:57.460Z,1.50
2022-08-10T10:43:35.924Z,0.88
2022-08-10T10:45:10.077Z,1.23
2022-08-10T10:46:49.363Z,1.30
2022-08-10T10:48:24.123Z,1.30
2022-08-10T10:49:59.349Z,1.10
2022-08-10T10:51:28.777Z,1.10
2022-08-10T10:53:01.878Z,1.50
2022-08-10T10:54:33.721Z,1.27
2022-08-10T10:56:15.889Z,1.30
2022-08-10T10:57:58.825Z,0.98
2022-08-10T10:59:53.719Z,1.55
2022-08-10T11:01:22.971Z,2.10
2022-08-10T11:02:58.225Z,1.38
2022-08-10T11:04:25.711Z,1.23
2022-08-10T11:05:54.523Z,1.42
2022-08-10T11:07:28.444Z,1.50
2022-08-10T11:09:01.105Z,1.23
2022-08-10T11:10:34.796Z,1.20
2022-08-10T11:12:05.086Z,1.20
2022-08-10T11:14:26.908Z,1.23
2022-08-10T11:15:23.073Z,1.95
2022-08-10T11:16:56.256Z,1.40
2022-08-10T11:18:34.361Z,1.90
2022-08-10T11:20:06.793Z,1.58
2022-08-10T11:21:42.106Z,1.48
2022-08-10T11:23:17.747Z,1.30
2022-08-10T11:24:50.438Z,1.55
2022-08-10T11:26:18.600Z,1.25
2022-08-10T11:27:49.035Z,1.20
2022-08-10T11:29:21.667Z,1.65
2022-08-10T11:30:47.312Z,1.30
2022-08-10T11:32:21.270Z,1.20
2022-08-10T11:35:42.707Z,1.00
2022-08-10T11:37:17.399Z,1.40
2022-08-10T11:39:11.190Z,1.40
2022-08-10T11:40:37.109Z,0.93
2022-08-10T11:42:16.102Z,1.40
2022-08-10T11:43:50.592Z,1.30
2022-08-10T11:45:17.859Z,2.70
2022-08-10T11:46:47.474Z,1.50
2022-08-10T11:48:13.295Z,1.60
2022-08-10T11:50:03.465Z,1.40
2022-08-10T11:51:30.008Z,1.20
2022-08-10T11:53:01.243Z,1.33
2022-08-10T11:54:31.461Z,1.10
2022-08-10T11:55:57.806Z,1.27
2022-08-10T11:57:21.877Z,1.20
2022-08-10T11:59:16.406Z,1.73
2022-08-10T12:00:41.088Z,1.30
2022-08-10T12:02:04.069Z,1.40
2022-08-10T12:03:34.030Z,1.63
2022-08-10T12:05:03.907Z,1.98
2022-08-10T12:06:54.161Z,1.60
2022-08-10T12:10:10.999Z,1.60
2022-08-10T12:10:11.508Z,1.60
2022-08-10T12:11:37.162Z,1.20
2022-08-10T12:13:06.664Z,1.45
2022-08-10T12:14:33.784Z,1.35
2022-08-10T12:16:05.744Z,1.67
2022-08-10T12:17:33.905Z,1.30
2022-08-10T12:19:04.419Z,3.30
2022-08-10T12:20:32.615Z,1.60
2022-08-10T12:22:05.809Z,1.80
2022-08-10T12:23:39.190Z,1.50
2022-08-10T12:25:05.559Z,1.15
2022-08-10T12:26:34.387Z,1.25
2022-08-10T12:28:03.917Z,1.27
2022-08-10T12:29:37.141Z,1.40
2022-08-10T12:31:09.147Z,1.10
2022-08-10T12:32:37.079Z,1.23
2022-08-10T12:34:15.648Z,1.30
2022-08-10T12:36:01.850Z,1.40
2022-08-10T12:37:34.689Z,1.17
2022-08-10T12:39:05.233Z,1.30
2022-08-10T12:40:38.027Z,1.55
2022-08-10T12:42:06.521Z,1.00
2022-08-10T12:44:06.867Z,1.50
2022-08-10T12:45:24.981Z,1.60
2022-08-10T12:46:56.338Z,1.30
2022-08-10T12:48:24.399Z,1.38
2022-08-10T12:50:29.850Z,1.17
2022-08-10T12:51:49.436Z,1.35
2022-08-10T12:53:20.917Z,1.10
2022-08-10T12:54:45.136Z,1.30
2022-08-10T12:56:09.419Z,1.40
2022-08-10T12:57:37.113Z,1.40
2022-08-10T12:59:02.548Z,1.30
2022-08-10T13:00:32.057Z,1.40
2022-08-10T13:02:06.604Z,1.20
2022-08-10T13:04:21.734Z,1.60
2022-08-10T13:05:20.341Z,1.20
2022-08-10T13:06:49.857Z,1.50
2022-08-10T13:08:31.441Z,1.10
2022-08-10T13:09:56.655Z,1.30
2022-08-10T13:12:37.097Z,1.30
2022-08-10T13:13:07.951Z,1.40
2022-08-10T13:14:38.822Z,1.50
2022-08-10T13:16:04.260Z,1.60
2022-08-10T13:17:39.020Z,1.50
2022-08-10T13:19:05.395Z,1.67
2022-08-10T13:20:31.653Z,1.50
2022-08-10T13:21:58.268Z,1.30
2022-08-10T13:23:26.903Z,1.40
2022-08-10T13:24:55.877Z,1.33
2022-08-10T13:26:21.782Z,1.40
2022-08-10T13:28:01.309Z,1.35
2022-08-10T13:29:36.492Z,1.50
2022-08-10T13:31:05.420Z,1.48
2022-08-10T13:32:30.248Z,1.60
2022-08-10T13:34:39.775Z,1.40
2022-08-10T13:35:39.602Z,1.50
2022-08-10T13:37:09.383Z,1.30
2022-08-10T13:38:33.045Z,1.58
2022-08-10T13:40:00.917Z,1.50
2022-08-10T13:41:29.709Z,1.27
2022-08-10T13:42:54.218Z,1.20
2022-08-10T13:44:30.604Z,1.60
2022-08-10T13:45:54.889Z,1.90
2022-08-10T13:47:20.506Z,1.20
2022-08-10T13:48:43.151Z,0.98
2022-08-10T13:50:09.706Z,1.40
2022-08-10T13:51:54.517Z,2.03
2022-08-10T13:53:24.462Z,1.40
2022-08-10T13:54:48.572Z,1.20
2022-08-10T13:56:13.315Z,1.40
2022-08-10T13:57:38.349Z,1.38
2022-08-10T13:59:12.275Z,1.75
2022-08-10T14:00:40.983Z,1.20
2022-08-10T14:02:05.358Z,1.23
2022-08-10T14:03:30.074Z,1.30
2022-08-10T14:04:55.634Z,1.20
2022-08-10T14:06:20.636Z,1.40
2022-08-10T14:08:00.510Z,1.50
2022-08-10T14:09:30.328Z,1.40
2022-08-10T14:11:08.621Z,1.40
2022-08-10T14:12:36.812Z,1.35
2022-08-10T14:14:03.323Z,1.35
2022-08-10T14:15:32.171Z,1.50
2022-08-10T14:16:55.955Z,1.60
2022-08-10T14:18:20.109Z,1.45
2022-08-10T14:19:43.923Z,1.45
2022-08-10T14:21:15.573Z,1.40
2022-08-10T14:22:39.757Z,1.63
2022-08-10T14:24:03.410Z,1.40
2022-08-10T14:25:28.497Z,1.45
2022-08-10T14:26:57.591Z,1.50
2022-08-10T14:28:23.145Z,1.20
2022-08-10T14:29:48.708Z,1.67
2022-08-10T14:31:21.823Z,1.30
2022-08-10T14:32:48.358Z,1.10
2022-08-10T14:34:12.725Z,1.15
2022-08-10T14:36:20.492Z,1.20
2022-08-10T14:37:25.660Z,1.65
2022-08-10T14:38:49.784Z,1.40
2022-08-10T14:40:20.877Z,1.20
2022-08-10T14:42:04.553Z,1.10
2022-08-10T14:43:34.406Z,1.60
2022-08-10T14:45:03.357Z,1.50
2022-08-10T14:46:29.111Z,1.30
2022-08-10T14:47:59.302Z,1.45
2022-08-10T14:49:27.537Z,1.35
2022-08-10T14:50:55.851Z,1.15
2022-08-10T14:52:26.949Z,1.08
2022-08-10T14:53:54.284Z,1.30
2022-08-10T14:55:19.820Z,1.13
2022-08-10T14:56:45.405Z,1.50
2022-08-10T14:58:19.318Z,1.30
2022-08-10T15:00:24.215Z,1.42
2022-08-10T15:02:01.235Z,1.13
2022-08-10T15:04:02.218Z,1.42
2022-08-10T15:05:00.355Z,1.33
2022-08-10T15:06:30.800Z,1.50
2022-08-10T15:07:59.383Z,1.27
2022-08-10T15:09:25.531Z,1.70
2022-08-10T15:10:50.866Z,1.30
2022-08-10T15:12:24.999Z,1.30
2022-08-10T15:14:12.432Z,1.23
2022-08-10T15:15:56.016Z,1.48
2022-08-10T15:17:27.433Z,1.27
2022-08-10T15:18:58.297Z,1.40
2022-08-10T15:20:24.871Z,1.40
2022-08-10T15:21:48.829Z,1.10
2022-08-10T15:23:30.860Z,1.17
2022-08-10T15:25:00.980Z,1.40
2022-08-10T15:26:27.806Z,1.45
2022-08-10T15:27:57.192Z,1.35
2022-08-10T15:29:23.450Z,1.13
2022-08-10T15:30:51.549Z,1.52
2022-08-10T15:32:32.996Z,1.20
2022-08-10T15:34:16.301Z,1.08
2022-08-10T15:35:58.396Z,1.38
2022-08-10T15:37:36.829Z,1.27
2022-08-10T15:39:14.944Z,1.20
2022-08-10T15:40:54.393Z,1.60
2022-08-10T15:42:21.424Z,1.30
2022-08-10T15:43:48.228Z,1.48
2022-08-10T15:45:17.449Z,1.20
2022-08-10T15:46:45.486Z,1.73
2022-08-10T15:48:09.911Z,1.30
2022-08-10T15:49:41.089Z,1.25
2022-08-10T15:51:21.148Z,1.33
2022-08-10T15:53:01.992Z,1.42
2022-08-10T15:54:33.793Z,1.45
2022-08-10T15:56:00.611Z,1.27
2022-08-10T15:57:28.823Z,1.40
2022-08-10T15:58:57.667Z,1.20
2022-08-10T16:00:21.851Z,1.05
2022-08-10T16:02:12.528Z,1.30
2022-08-10T16:03:38.077Z,1.30
2022-08-10T16:05:06.710Z,1.33
2022-08-10T16:06:34.299Z,1.77
2022-08-10T16:08:00.786Z,1.60
2022-08-10T16:10:24.956Z,1.45
2022-08-10T16:11:16.752Z,1.30
2022-08-10T16:12:43.650Z,1.42
2022-08-10T16:14:28.433Z,1.45
2022-08-10T16:15:54.415Z,1.45
2022-08-10T16:17:18.379Z,1.40
2022-08-10T16:18:44.678Z,1.05
2022-08-10T16:20:10.406Z,1.10
2022-08-10T16:21:36.051Z,1.10
2022-08-10T16:23:02.395Z,1.50
2022-08-10T16:24:26.590Z,1.27
2022-08-10T16:25:59.484Z,1.23
2022-08-10T16:27:29.061Z,1.30
2022-08-10T16:28:55.605Z,1.60
2022-08-10T16:30:20.604Z,2.50
2022-08-10T16:31:51.198Z,1.30
2022-08-10T16:33:17.565Z,1.30
2022-08-10T16:34:44.278Z,1.50
2022-08-10T16:36:09.517Z,1.35
2022-08-10T16:37:57.404Z,1.35
2022-08-10T16:39:58.651Z,1.65
2022-08-10T16:41:05.705Z,1.40
2022-08-10T16:42:49.521Z,1.10
2022-08-10T16:44:13.696Z,1.27
2022-08-10T16:45:41.301Z,1.40
2022-08-10T16:47:05.933Z,1.40
2022-08-10T16:48:49.389Z,1.17
2022-08-10T16:50:15.838Z,1.08
2022-08-10T16:51:40.195Z,1.30
2022-08-10T16:53:04.198Z,1.20
2022-08-10T16:54:28.698Z,1.33
2022-08-10T16:55:53.899Z,1.40
2022-08-10T16:57:18.034Z,1.50
2022-08-10T16:58:45.137Z,1.40
2022-08-10T17:00:10.594Z,1.80
2022-08-10T17:01:39.192Z,1.25
2022-08-10T17:04:04.907Z,1.40
2022-08-10T17:04:50.410Z,1.40
2022-08-10T17:06:19.385Z,1.50
2022-08-10T17:07:43.305Z,1.80
2022-08-10T17:09:09.447Z,1.52
2022-08-10T17:10:34.631Z,1.60
2022-08-10T17:11:59.314Z,1.40
2022-08-10T17:13:27.661Z,1.45
2022-08-10T17:15:10.404Z,2.05
2022-08-10T17:16:39.120Z,1.80
2022-08-10T17:18:05.091Z,1.33
2022-08-10T17:19:31.110Z,1.77
2022-08-10T17:20:54.047Z,1.50
2022-08-10T17:22:19.786Z,2.13
2022-08-10T17:23:47.846Z,1.42
2022-08-10T17:25:14.270Z,1.90
2022-08-10T17:26:39.172Z,1.48
2022-08-10T17:28:09.648Z,1.80
2022-08-10T17:29:57.673Z,1.58
2022-08-10T17:31:53.267Z,1.50
2022-08-10T17:33:11.192Z,1.40
2022-08-10T17:34:38.709Z,1.50
2022-08-10T17:36:04.264Z,1.55
2022-08-10T17:37:29.791Z,1.50
2022-08-10T17:38:53.798Z,1.65
2022-08-10T17:40:20.064Z,1.30
2022-08-10T17:41:43.462Z,1.70
2022-08-10T17:43:07.120Z,1.30
2022-08-10T17:44:35.738Z,1.40
2022-08-10T17:46:00.287Z,1.63
2022-08-10T17:47:27.275Z,1.85
2022-08-10T17:48:54.759Z,1.50
2022-08-10T17:50:22.836Z,1.90
2022-08-10T17:51:53.756Z,1.60
2022-08-10T17:53:18.562Z,1.50
2022-08-10T17:54:44.353Z,1.45
2022-08-10T17:56:10.140Z,1.45
2022-08-10T17:57:37.730Z,2.15
2022-08-10T17:59:08.569Z,1.40
2022-08-10T18:00:42.048Z,2.00
2022-08-10T18:02:09.203Z,1.58
2022-08-10T18:03:42.612Z,2.00
2022-08-10T18:05:10.518Z,1.80
2022-08-10T18:06:34.611Z,1.77
2022-08-10T18:07:58.630Z,2.15
2022-08-10T18:09:27.577Z,1.95
2022-08-10T18:10:54.254Z,1.65
2022-08-10T18:12:27.021Z,1.80
2022-08-10T18:14:00.554Z,1.90
2022-08-10T18:15:27.082Z,1.90
2022-08-10T18:16:52.752Z,1.90
2022-08-10T18:18:21.666Z,1.80
2022-08-10T18:19:48.330Z,1.90
2022-08-10T18:21:21.051Z,2.35
2022-08-10T18:22:47.701Z,1.40
2022-08-10T18:24:16.513Z,1.90
2022-08-10T18:25:42.093Z,1.83
2022-08-10T18:27:06.027Z,1.80
2022-08-10T18:28:30.816Z,1.83
2022-08-10T18:29:58.241Z,2.33
2022-08-10T18:31:24.816Z,1.98
2022-08-10T18:32:50.766Z,1.80
2022-08-10T18:34:18.955Z,1.70
2022-08-10T18:35:45.075Z,2.03
2022-08-10T18:37:11.462Z,1.90
2022-08-10T18:38:37.551Z,2.00
2022-08-10T18:40:02.221Z,2.40
2022-08-10T18:41:30.991Z,2.13
2022-08-10T18:42:57.467Z,2.10
2022-08-10T18:44:22.476Z,1.98
2022-08-10T18:45:46.685Z,2.10
2022-08-10T18:47:14.909Z,2.00
2022-08-10T18:48:42.224Z,2.15
2022-08-10T18:50:10.610Z,1.95
2022-08-10T18:51:46.239Z,2.33
2022-08-10T18:53:15.269Z,2.00
2022-08-10T18:54:45.241Z,2.38
2022-08-10T18:56:14.419Z,2.10
2022-08-10T18:57:49.920Z,2.25
2022-08-10T18:59:30.120Z,2.50
2022-08-10T19:01:10.717Z,2.15
2022-08-10T19:02:51.832Z,2.00
2022-08-10T19:04:25.260Z,2.30
2022-08-10T19:06:08.467Z,2.30
2022-08-10T19:07:47.436Z,2.60
2022-08-10T19:09:45.826Z,2.00
2022-08-10T19:11:18.862Z,2.58
2022-08-10T19:12:46.105Z,2.28
2022-08-10T19:14:16.119Z,2.50
2022-08-10T19:15:45.683Z,2.50
2022-08-10T19:17:12.361Z,2.40
2022-08-10T19:18:41.909Z,2.50
2022-08-10T19:20:12.433Z,2.38
2022-08-10T19:21:40.888Z,2.90
2022-08-10T19:23:14.150Z,2.70
2022-08-10T19:24:57.196Z,2.35
2022-08-10T19:26:43.969Z,2.80
2022-08-10T19:28:13.134Z,2.95
2022-08-10T19:30:05.105Z,2.90
2022-08-10T19:31:42.067Z,2.67
2022-08-10T19:33:21.055Z,3.00
2022-08-10T19:34:53.893Z,2.70
2022-08-10T19:36:19.014Z,2.50
2022-08-10T19:38:00.002Z,2.95
2022-08-10T19:39:28.903Z,3.00
2022-08-10T19:41:09.369Z,2.75
2022-08-10T19:42:38.999Z,3.05
2022-08-10T19:44:07.903Z,3.47
2022-08-10T19:46:01.695Z,3.33
2022-08-10T19:47:27.932Z,3.75
2022-08-10T19:49:04.993Z,3.22
2022-08-10T19:50:34.067Z,2.67
2022-08-10T19:52:10.199Z,3.17
2022-08-10T19:53:43.399Z,2.47
2022-08-10T19:55:15.399Z,2.50
2022-08-10T19:56:48.025Z,2.83
2022-08-10T19:58:17.223Z,2.63
2022-08-10T20:00:17.048Z,2.15
2022-08-10T20:01:55.853Z,2.13
2022-08-10T20:03:24.209Z,2.42
2022-08-10T20:04:57.790Z,2.38
2022-08-10T20:06:25.128Z,2.50
2022-08-10T20:07:52.855Z,2.30
2022-08-10T20:09:21.359Z,2.47
2022-08-10T20:10:49.752Z,2.00